Time;durP1;ratioP1;P1;durP2;ratioP2;P2;SDS_P1;SDS_P2;PMS_P1;PMS_P2;Temp;Humidity;BMP_temperature;BMP_pressure;BME280_temperature;BME280_humidity;BME280_pressure;Samples;Min_cycle;Max_cycle;Signal;HPM_P1;HPM_P2
2022/04/24 00:00:14;;;;;;;33.80;20.60;;;;;;;;;;752526;184;929391;-63
2022/04/24 00:02:40;;;;;;;26.37;18.77;;;;;;;;;;753918;184;919282;-62
2022/04/24 00:05:06;;;;;;;26.80;19.37;;;;;;;;;;763159;184;918671;-63
2022/04/24 00:07:32;;;;;;;22.23;17.50;;;;;;;;;;766787;183;860953;-62
2022/04/24 00:09:58;;;;;;;26.80;19.30;;;;;;;;;;759400;183;919190;-62
2022/04/24 00:12:24;;;;;;;45.10;22.47;;;;;;;;;;757956;184;918809;-62
2022/04/24 00:14:49;;;;;;;34.77;22.40;;;;;;;;;;762021;184;918036;-62
2022/04/24 00:17:16;;;;;;;35.83;21.60;;;;;;;;;;754103;185;919422;-62
2022/04/24 00:19:41;;;;;;;37.47;23.00;;;;;;;;;;757204;184;919655;-62
2022/04/24 00:22:08;;;;;;;33.25;20.33;;;;;;;;;;762427;184;919623;-61
2022/04/24 00:24:33;;;;;;;33.03;20.63;;;;;;;;;;763896;184;919781;-62
2022/04/24 00:26:59;;;;;;;27.83;19.30;;;;;;;;;;752747;184;919386;-62
2022/04/24 00:29:25;;;;;;;33.00;22.80;;;;;;;;;;746008;187;918690;-63
2022/04/24 00:31:51;;;;;;;32.17;21.30;;;;;;;;;;752420;184;918694;-62
2022/04/24 00:34:17;;;;;;;31.70;20.60;;;;;;;;;;747522;185;922737;-62
2022/04/24 00:36:44;;;;;;;26.73;20.03;;;;;;;;;;740190;187;916654;-62
2022/04/24 00:39:09;;;;;;;33.00;21.60;;;;;;;;;;749579;187;918084;-61
2022/04/24 00:41:34;;;;;;;30.20;20.20;;;;;;;;;;752917;184;920007;-62
2022/04/24 00:44:00;;;;;;;29.57;19.77;;;;;;;;;;755309;184;918473;-63
2022/04/24 00:46:43;;;;;;;29.77;19.40;;;;;;;;;;761146;182;918925;-62
2022/04/24 00:49:09;;;;;;;31.67;22.47;;;;;;;;;;751060;186;919303;-63
2022/04/24 00:51:36;;;;;;;34.57;22.23;;;;;;;;;;760198;182;919187;-63
2022/04/24 00:54:01;;;;;;;30.57;20.23;;;;;;;;;;755738;184;919256;-63
2022/04/24 00:56:30;;;;;;;45.13;23.20;;;;;;;;;;755024;184;919190;-63
2022/04/24 00:58:52;;;;;;;33.97;22.60;;;;;;;;;;759461;184;918996;-63
2022/04/24 01:01:18;;;;;;;29.00;21.83;;;;;;;;;;753873;184;918661;-63
2022/04/24 01:03:44;;;;;;;27.60;21.27;;;;;;;;;;757217;184;919344;-63
2022/04/24 01:06:10;;;;;;;29.70;22.93;;;;;;;;;;759810;183;919145;-64
2022/04/24 01:08:35;;;;;;;33.60;22.43;;;;;;;;;;751971;184;920110;-64
2022/04/24 01:11:01;;;;;;;34.90;28.25;;;;;;;;;;750943;184;918011;-64
2022/04/24 01:13:27;;;;;;;37.77;26.40;;;;;;;;;;756018;184;917833;-63
2022/04/24 01:15:53;;;;;;;39.50;26.37;;;;;;;;;;754661;181;919769;-63
2022/04/24 01:18:19;;;;;;;37.23;25.27;;;;;;;;;;758333;184;919162;-64
2022/04/24 01:20:45;;;;;;;39.97;26.63;;;;;;;;;;758532;184;919509;-63
2022/04/24 01:23:10;;;;;;;42.05;27.20;;;;;;;;;;743733;188;918716;-64
2022/04/24 01:25:37;;;;;;;46.87;29.90;;;;;;;;;;760094;184;919249;-64
2022/04/24 01:28:02;;;;;;;46.47;30.70;;;;;;;;;;759818;183;919351;-63
2022/04/24 01:30:28;;;;;;;44.63;29.37;;;;;;;;;;758398;184;939170;-63
2022/04/24 01:32:54;;;;;;;43.23;29.13;;;;;;;;;;756029;184;919351;-62
2022/04/24 01:35:20;;;;;;;45.27;29.70;;;;;;;;;;758124;184;919927;-63
2022/04/24 01:37:45;;;;;;;38.80;27.50;;;;;;;;;;768041;183;918549;-62
2022/04/24 01:40:11;;;;;;;38.40;27.58;;;;;;;;;;764686;183;923359;-62
2022/04/24 01:42:37;;;;;;;45.43;29.60;;;;;;;;;;749463;184;919138;-62
2022/04/24 01:45:03;;;;;;;44.13;30.10;;;;;;;;;;759537;184;919705;-62
2022/04/24 01:47:29;;;;;;;216.30;121.37;;;;;;;;;;749325;184;1021276;-62
2022/04/24 01:49:55;;;;;;;63.67;41.17;;;;;;;;;;746977;185;921162;-63
2022/04/24 01:52:21;;;;;;;67.27;40.70;;;;;;;;;;756581;184;918901;-62
2022/04/24 01:54:47;;;;;;;140.60;84.97;;;;;;;;;;762542;184;919522;-61
2022/04/24 01:57:12;;;;;;;76.67;47.07;;;;;;;;;;759018;184;919620;-63
2022/04/24 01:59:38;;;;;;;47.42;35.55;;;;;;;;;;760449;184;919682;-62
2022/04/24 02:02:04;;;;;;;46.23;33.70;;;;;;;;;;765767;184;920305;-62
2022/04/24 02:04:30;;;;;;;48.97;34.20;;;;;;;;;;761303;183;918829;-63
2022/04/24 02:06:56;;;;;;;47.60;34.07;;;;;;;;;;760399;184;920065;-62
2022/04/24 02:09:22;;;;;;;49.43;32.00;;;;;;;;;;762661;184;919715;-62
2022/04/24 02:11:48;;;;;;;44.23;30.50;;;;;;;;;;755864;184;1019961;-64
2022/04/24 02:14:14;;;;;;;42.30;30.17;;;;;;;;;;757438;183;920062;-62
2022/04/24 02:16:40;;;;;;;45.80;30.70;;;;;;;;;;761019;183;918133;-62
2022/04/24 02:19:05;;;;;;;50.37;31.03;;;;;;;;;;770287;183;915438;-62
2022/04/24 02:21:31;;;;;;;46.87;30.43;;;;;;;;;;756977;183;915151;-61
2022/04/24 02:23:57;;;;;;;45.70;31.30;;;;;;;;;;749901;184;916542;-61
2022/04/24 02:26:23;;;;;;;41.50;31.83;;;;;;;;;;759774;184;915539;-62
2022/04/24 02:28:49;;;;;;;48.00;30.40;;;;;;;;;;757318;184;919755;-62
2022/04/24 02:31:15;;;;;;;47.00;32.60;;;;;;;;;;749875;184;926710;-62
2022/04/24 02:33:40;;;;;;;46.33;32.57;;;;;;;;;;756265;185;918351;-62
2022/04/24 02:36:06;;;;;;;48.77;33.03;;;;;;;;;;757150;183;920200;-62
2022/04/24 02:38:32;;;;;;;49.92;34.55;;;;;;;;;;747484;184;919049;-62
2022/04/24 02:40:58;;;;;;;53.47;33.63;;;;;;;;;;758984;184;918816;-62
2022/04/24 02:43:24;;;;;;;52.03;32.70;;;;;;;;;;763485;184;922265;-63
2022/04/24 02:45:50;;;;;;;46.10;32.77;;;;;;;;;;758186;183;919559;-61
2022/04/24 02:48:15;;;;;;;47.57;31.57;;;;;;;;;;757799;184;952431;-62
2022/04/24 02:50:41;;;;;;;45.17;32.40;;;;;;;;;;764353;184;920724;-62
2022/04/24 02:53:07;;;;;;;51.10;33.77;;;;;;;;;;749719;185;918878;-62
2022/04/24 02:55:33;;;;;;;45.67;31.40;;;;;;;;;;750730;184;1018882;-63
2022/04/24 02:57:59;;;;;;;49.70;33.60;;;;;;;;;;765667;183;918159;-62
2022/04/24 03:00:27;;;;;;;43.73;31.17;;;;;;;;;;759355;183;928425;-62
2022/04/24 03:02:51;;;;;;;46.03;31.57;;;;;;;;;;747866;183;918980;-62
2022/04/24 03:05:16;;;;;;;49.87;33.40;;;;;;;;;;754402;185;918420;-62
2022/04/24 03:07:42;;;;;;;51.60;32.87;;;;;;;;;;749478;184;918788;-62
2022/04/24 03:10:09;;;;;;;48.13;34.87;;;;;;;;;;763482;182;920661;-62
2022/04/24 03:12:35;;;;;;;50.33;31.37;;;;;;;;;;759951;184;919053;-62
2022/04/24 03:15:01;;;;;;;50.90;33.77;;;;;;;;;;765380;184;918488;-62
2022/04/24 03:17:27;;;;;;;59.50;34.17;;;;;;;;;;753695;184;918923;-62
2022/04/24 03:19:52;;;;;;;53.70;36.22;;;;;;;;;;758560;184;922733;-62
2022/04/24 03:22:18;;;;;;;54.30;35.00;;;;;;;;;;754466;184;918674;-62
2022/04/24 03:24:45;;;;;;;53.07;35.90;;;;;;;;;;758787;184;918447;-62
2022/04/24 03:27:10;;;;;;;59.60;36.90;;;;;;;;;;754744;184;917972;-62
2022/04/24 03:29:36;;;;;;;63.10;35.70;;;;;;;;;;762948;184;919831;-62
2022/04/24 03:32:02;;;;;;;53.57;36.47;;;;;;;;;;757533;183;918592;-62
2022/04/24 03:34:28;;;;;;;54.50;34.40;;;;;;;;;;754336;184;917058;-62
2022/04/24 03:36:53;;;;;;;54.35;35.58;;;;;;;;;;756991;183;917763;-62
2022/04/24 03:39:20;;;;;;;51.53;35.23;;;;;;;;;;734337;191;918065;-62
2022/04/24 03:41:45;;;;;;;57.60;36.60;;;;;;;;;;723957;190;916250;-62
2022/04/24 03:44:11;;;;;;;53.17;36.00;;;;;;;;;;756656;183;915961;-62
2022/04/24 03:46:37;;;;;;;59.20;36.23;;;;;;;;;;765731;182;919872;-61
2022/04/24 03:49:03;;;;;;;61.73;37.70;;;;;;;;;;757159;184;915325;-62
2022/04/24 03:51:29;;;;;;;56.43;35.87;;;;;;;;;;756739;185;918877;-62
2022/04/24 03:53:54;;;;;;;52.57;34.67;;;;;;;;;;763901;184;919246;-62
2022/04/24 03:56:20;;;;;;;54.00;35.70;;;;;;;;;;763956;184;621295;-62
2022/04/24 03:58:46;;;;;;;51.97;30.70;;;;;;;;;;767188;183;625517;-62
2022/04/24 04:01:12;;;;;;;54.63;34.13;;;;;;;;;;761250;183;919323;-62
2022/04/24 04:03:38;;;;;;;48.80;35.20;;;;;;;;;;738428;191;919244;-62
2022/04/24 04:06:04;;;;;;;48.77;34.27;;;;;;;;;;757244;184;918881;-61
2022/04/24 04:08:29;;;;;;;47.97;35.30;;;;;;;;;;761121;183;918812;-62
2022/04/24 04:10:55;;;;;;;52.20;34.90;;;;;;;;;;764787;183;986700;-62
2022/04/24 04:13:21;;;;;;;55.23;35.33;;;;;;;;;;758086;183;920437;-62
2022/04/24 04:15:47;;;;;;;52.10;34.73;;;;;;;;;;757362;184;919866;-61
2022/04/24 04:18:13;;;;;;;48.93;32.93;;;;;;;;;;762221;184;918595;-61
2022/04/24 04:20:39;;;;;;;60.37;39.40;;;;;;;;;;759524;184;918706;-61
2022/04/24 04:23:05;;;;;;;48.87;31.67;;;;;;;;;;760515;183;919498;-61
2022/04/24 04:25:30;;;;;;;46.30;32.13;;;;;;;;;;767858;182;919452;-61
2022/04/24 04:27:56;;;;;;;49.77;33.30;;;;;;;;;;761439;184;920287;-60
2022/04/24 04:30:22;;;;;;;51.90;34.03;;;;;;;;;;760388;184;919805;-61
2022/04/24 04:32:48;;;;;;;49.50;34.53;;;;;;;;;;757159;184;921995;-61
2022/04/24 04:35:14;;;;;;;49.37;33.27;;;;;;;;;;758862;184;918684;-60
2022/04/24 04:37:40;;;;;;;50.30;30.43;;;;;;;;;;753742;184;920019;-61
2022/04/24 04:40:06;;;;;;;45.43;30.90;;;;;;;;;;755884;184;919884;-61
2022/04/24 04:42:32;;;;;;;46.03;29.90;;;;;;;;;;761423;184;919505;-61
2022/04/24 04:45:00;;;;;;;46.30;33.93;;;;;;;;;;757936;184;918820;-61
2022/04/24 04:47:24;;;;;;;42.58;28.95;;;;;;;;;;753567;184;919231;-63
2022/04/24 04:49:50;;;;;;;47.80;30.30;;;;;;;;;;761563;183;918854;-61
2022/04/24 04:52:15;;;;;;;44.03;28.90;;;;;;;;;;759348;183;920820;-60
2022/04/24 04:54:41;;;;;;;42.30;27.93;;;;;;;;;;755877;183;918764;-62
2022/04/24 04:57:07;;;;;;;49.07;27.87;;;;;;;;;;756141;184;919432;-61
2022/04/24 04:59:33;;;;;;;49.00;29.83;;;;;;;;;;759714;183;919529;-60
2022/04/24 05:01:59;;;;;;;41.07;28.07;;;;;;;;;;756909;184;919116;-62
2022/04/24 05:04:24;;;;;;;40.50;25.37;;;;;;;;;;754507;184;919500;-60
2022/04/24 05:06:50;;;;;;;47.90;27.27;;;;;;;;;;761025;184;918287;-61
2022/04/24 05:09:16;;;;;;;43.93;30.63;;;;;;;;;;756413;184;919724;-61
2022/04/24 05:11:42;;;;;;;43.10;28.43;;;;;;;;;;755000;183;919143;-62
2022/04/24 05:14:08;;;;;;;40.50;28.30;;;;;;;;;;757697;184;919571;-61
2022/04/24 05:16:34;;;;;;;45.67;27.87;;;;;;;;;;754716;183;919059;-61
2022/04/24 05:18:59;;;;;;;43.07;28.07;;;;;;;;;;755843;184;918322;-62
2022/04/24 05:21:26;;;;;;;38.70;24.75;;;;;;;;;;760784;183;920336;-61
2022/04/24 05:23:52;;;;;;;36.90;25.30;;;;;;;;;;763556;183;919372;-61
2022/04/24 05:26:17;;;;;;;40.57;29.30;;;;;;;;;;755787;181;919499;-61
2022/04/24 05:28:43;;;;;;;42.47;30.00;;;;;;;;;;754254;184;924598;-61
2022/04/24 05:31:09;;;;;;;65.20;38.90;;;;;;;;;;760881;184;918440;-61
2022/04/24 05:33:35;;;;;;;57.43;39.17;;;;;;;;;;758221;183;919342;-61
2022/04/24 05:36:01;;;;;;;51.87;34.27;;;;;;;;;;757901;183;919245;-61
2022/04/24 05:38:27;;;;;;;61.77;44.97;;;;;;;;;;762334;182;932620;-61
2022/04/24 05:40:53;;;;;;;43.37;29.93;;;;;;;;;;754416;183;920380;-61
2022/04/24 05:43:18;;;;;;;43.67;27.20;;;;;;;;;;753910;183;918588;-61
2022/04/24 05:45:45;;;;;;;39.53;26.97;;;;;;;;;;761844;183;919442;-61
2022/04/24 05:48:10;;;;;;;37.20;27.70;;;;;;;;;;754429;184;918880;-61
2022/04/24 05:50:36;;;;;;;41.57;27.40;;;;;;;;;;756446;183;926500;-61
2022/04/24 05:53:02;;;;;;;38.07;25.63;;;;;;;;;;758834;183;918997;-61
2022/04/24 05:55:28;;;;;;;47.63;28.47;;;;;;;;;;762240;184;920336;-60
2022/04/24 05:57:53;;;;;;;43.03;28.10;;;;;;;;;;754022;184;922222;-61
2022/04/24 06:00:19;;;;;;;32.03;24.17;;;;;;;;;;756302;184;920563;-62
2022/04/24 06:02:45;;;;;;;37.37;26.03;;;;;;;;;;762954;183;920457;-62
2022/04/24 06:05:11;;;;;;;37.90;25.73;;;;;;;;;;755517;183;920294;-61
2022/04/24 06:07:37;;;;;;;43.07;27.90;;;;;;;;;;754818;184;923374;-61
2022/04/24 06:10:03;;;;;;;39.33;26.63;;;;;;;;;;759316;184;920720;-62
2022/04/24 06:12:29;;;;;;;37.57;25.00;;;;;;;;;;754467;184;917354;-61
2022/04/24 06:14:54;;;;;;;36.87;24.80;;;;;;;;;;754652;184;919509;-61
2022/04/24 06:17:20;;;;;;;43.40;28.80;;;;;;;;;;754272;183;924929;-61
2022/04/24 06:19:46;;;;;;;41.30;28.77;;;;;;;;;;757141;183;920799;-62
2022/04/24 06:22:12;;;;;;;41.63;28.73;;;;;;;;;;752888;183;919426;-61
2022/04/24 06:24:38;;;;;;;41.40;27.23;;;;;;;;;;746769;184;920243;-62
2022/04/24 06:27:04;;;;;;;38.03;27.90;;;;;;;;;;760786;183;1024293;-60
2022/04/24 06:29:30;;;;;;;48.97;31.70;;;;;;;;;;758359;183;918936;-61
2022/04/24 06:31:56;;;;;;;51.63;33.70;;;;;;;;;;759499;183;921424;-61
2022/04/24 06:34:21;;;;;;;46.03;30.70;;;;;;;;;;762432;183;920340;-62
2022/04/24 06:36:47;;;;;;;48.87;29.90;;;;;;;;;;757103;183;919640;-62
2022/04/24 06:39:13;;;;;;;50.10;33.10;;;;;;;;;;759273;183;918717;-61
2022/04/24 06:41:40;;;;;;;57.67;34.35;;;;;;;;;;750987;186;919761;-61
2022/04/24 06:44:06;;;;;;;65.90;43.37;;;;;;;;;;755496;184;919588;-62
2022/04/24 06:46:31;;;;;;;55.03;36.80;;;;;;;;;;751110;184;919153;-62
2022/04/24 06:48:57;;;;;;;82.30;47.77;;;;;;;;;;751759;184;919191;-61
2022/04/24 06:51:23;;;;;;;45.87;30.67;;;;;;;;;;753502;184;916691;-62
2022/04/24 06:53:49;;;;;;;59.67;40.33;;;;;;;;;;751556;184;917080;-61
2022/04/24 06:56:15;;;;;;;76.73;41.50;;;;;;;;;;753976;183;920864;-62
2022/04/24 06:58:41;;;;;;;78.10;45.57;;;;;;;;;;765215;184;917563;-61
2022/04/24 07:01:06;;;;;;;77.17;46.83;;;;;;;;;;758444;184;918573;-62
2022/04/24 07:03:32;;;;;;;55.50;31.52;;;;;;;;;;752972;184;919283;-61
2022/04/24 07:06:00;;;;;;;80.07;49.17;;;;;;;;;;760981;183;918132;-62
2022/04/24 07:08:25;;;;;;;85.30;48.65;;;;;;;;;;750959;183;919291;-62
2022/04/24 07:10:52;;;;;;;103.67;55.40;;;;;;;;;;757131;183;1020667;-62
2022/04/24 07:13:16;;;;;;;87.73;50.13;;;;;;;;;;753882;183;923276;-61
2022/04/24 07:15:42;;;;;;;60.87;38.60;;;;;;;;;;760193;184;918404;-62
2022/04/24 07:18:10;;;;;;;81.47;52.83;;;;;;;;;;760183;183;920517;-61
2022/04/24 07:20:34;;;;;;;84.17;53.80;;;;;;;;;;757072;182;1019635;-62
2022/04/24 07:23:01;;;;;;;86.70;59.53;;;;;;;;;;763198;182;946514;-62
2022/04/24 07:25:27;;;;;;;54.30;36.30;;;;;;;;;;761212;183;916860;-62
2022/04/24 07:27:52;;;;;;;40.40;29.73;;;;;;;;;;758230;184;923622;-62
2022/04/24 07:30:18;;;;;;;49.23;29.80;;;;;;;;;;760210;184;917578;-61
2022/04/24 07:32:44;;;;;;;82.70;44.77;;;;;;;;;;755019;184;919212;-65
2022/04/24 07:35:10;;;;;;;64.12;41.70;;;;;;;;;;753467;184;919736;-62
2022/04/24 07:37:36;;;;;;;69.23;45.90;;;;;;;;;;753302;184;920301;-61
2022/04/24 07:40:02;;;;;;;73.13;46.37;;;;;;;;;;739785;188;919079;-62
2022/04/24 07:42:28;;;;;;;54.63;36.73;;;;;;;;;;750989;185;919949;-62
2022/04/24 07:44:54;;;;;;;50.97;35.20;;;;;;;;;;762114;183;899992;-62
2022/04/24 07:47:20;;;;;;;50.42;35.72;;;;;;;;;;766503;183;918646;-62
2022/04/24 07:49:46;;;;;;;48.13;33.57;;;;;;;;;;754076;184;918843;-63
2022/04/24 07:52:12;;;;;;;49.97;34.20;;;;;;;;;;749381;184;922980;-62
2022/04/24 07:54:37;;;;;;;47.10;36.83;;;;;;;;;;759916;182;919617;-62
2022/04/24 07:57:03;;;;;;;50.63;34.37;;;;;;;;;;751519;184;918513;-62
2022/04/24 07:59:29;;;;;;;56.07;37.87;;;;;;;;;;757694;184;919098;-62
2022/04/24 08:01:55;;;;;;;54.20;35.08;;;;;;;;;;767800;182;918397;-62
2022/04/24 08:04:21;;;;;;;54.37;33.60;;;;;;;;;;755572;186;917663;-63
2022/04/24 08:06:48;;;;;;;56.50;36.57;;;;;;;;;;751504;184;918890;-62
2022/04/24 08:09:13;;;;;;;50.60;36.30;;;;;;;;;;748008;184;920733;-61
2022/04/24 08:11:39;;;;;;;46.47;33.43;;;;;;;;;;752544;184;920943;-60
2022/04/24 08:14:05;;;;;;;57.07;37.20;;;;;;;;;;741410;187;923803;-60
2022/04/24 08:16:31;;;;;;;48.37;32.83;;;;;;;;;;753920;184;919605;-61
2022/04/24 08:19:01;;;;;;;48.60;32.03;;;;;;;;;;756149;184;917701;-61
2022/04/24 08:21:22;;;;;;;45.80;31.93;;;;;;;;;;759580;183;1020014;-61
2022/04/24 08:23:48;;;;;;;52.37;35.23;;;;;;;;;;756513;184;921803;-61
2022/04/24 08:26:14;;;;;;;44.30;31.80;;;;;;;;;;759404;184;919153;-61
2022/04/24 08:28:40;;;;;;;47.70;33.40;;;;;;;;;;760142;183;906479;-61
2022/04/24 08:31:06;;;;;;;48.93;31.83;;;;;;;;;;753167;184;916375;-61
2022/04/24 08:33:32;;;;;;;50.43;34.37;;;;;;;;;;753743;184;917144;-63
2022/04/24 08:35:58;;;;;;;58.10;31.87;;;;;;;;;;763456;183;915610;-61
2022/04/24 08:38:24;;;;;;;51.55;34.33;;;;;;;;;;760792;183;1021247;-61
2022/04/24 08:40:49;;;;;;;49.80;33.57;;;;;;;;;;755916;185;919844;-60
2022/04/24 08:43:15;;;;;;;48.27;34.20;;;;;;;;;;760940;185;919735;-61
2022/04/24 08:45:42;;;;;;;50.20;37.17;;;;;;;;;;750234;184;919283;-61
2022/04/24 08:48:08;;;;;;;42.00;29.27;;;;;;;;;;754443;184;919342;-62
2022/04/24 08:50:34;;;;;;;46.43;30.10;;;;;;;;;;759783;184;919208;-61
2022/04/24 08:53:00;;;;;;;46.23;31.33;;;;;;;;;;752977;184;926085;-62
2022/04/24 08:55:26;;;;;;;42.93;29.70;;;;;;;;;;758719;184;920195;-62
2022/04/24 08:57:52;;;;;;;36.07;27.83;;;;;;;;;;754968;184;1006069;-63
2022/04/24 09:00:18;;;;;;;46.60;29.30;;;;;;;;;;759756;184;918659;-63
2022/04/24 09:02:44;;;;;;;41.10;30.57;;;;;;;;;;754751;184;919221;-63
2022/04/24 09:05:10;;;;;;;43.43;27.87;;;;;;;;;;754264;184;919181;-62
2022/04/24 09:07:36;;;;;;;39.10;27.73;;;;;;;;;;763155;182;918450;-64
2022/04/24 09:10:03;;;;;;;43.10;28.50;;;;;;;;;;761898;182;915848;-63
2022/04/24 09:12:29;;;;;;;37.87;26.63;;;;;;;;;;760666;183;632343;-63
2022/04/24 09:14:54;;;;;;;36.60;25.30;;;;;;;;;;755856;186;620134;-63
2022/04/24 09:17:20;;;;;;;39.30;26.83;;;;;;;;;;756739;184;630532;-63
2022/04/24 09:19:45;;;;;;;34.70;23.87;;;;;;;;;;754794;184;916355;-62
2022/04/24 09:22:11;;;;;;;36.10;26.27;;;;;;;;;;753797;183;915907;-63
2022/04/24 09:24:47;;;;;;;35.87;24.60;;;;;;;;;;758243;183;630413;-63
2022/04/24 09:27:12;;;;;;;41.80;27.50;;;;;;;;;;750378;186;919494;-61
2022/04/24 09:29:38;;;;;;;33.60;25.42;;;;;;;;;;747819;184;1124282;-62
2022/04/24 09:32:04;;;;;;;36.33;25.73;;;;;;;;;;760687;183;623045;-63
2022/04/24 09:34:31;;;;;;;43.60;24.07;;;;;;;;;;759837;183;622955;-61
2022/04/24 09:37:00;;;;;;;37.83;25.27;;;;;;;;;;758720;184;920131;-63
2022/04/24 09:39:26;;;;;;;33.85;23.48;;;;;;;;;;757655;184;918801;-62
2022/04/24 09:41:52;;;;;;;40.47;24.83;;;;;;;;;;757771;183;919617;-62
2022/04/24 09:44:19;;;;;;;101.53;54.03;;;;;;;;;;754772;183;918116;-64
2022/04/24 09:46:44;;;;;;;40.30;25.50;;;;;;;;;;753148;184;918680;-65
2022/04/24 09:49:10;;;;;;;42.53;27.63;;;;;;;;;;761230;183;907965;-64
2022/04/24 09:51:39;;;;;;;32.10;15.93;;;;;;;;;;750456;184;918711;-64
2022/04/24 09:54:04;;;;;;;11.90;8.27;;;;;;;;;;752673;184;923514;-65
2022/04/24 09:56:30;;;;;;;9.47;6.57;;;;;;;;;;752858;184;937460;-66
2022/04/24 09:58:56;;;;;;;11.37;5.60;;;;;;;;;;760859;183;893985;-66
2022/04/24 10:01:22;;;;;;;11.17;6.77;;;;;;;;;;754120;184;918554;-66
2022/04/24 10:03:48;;;;;;;12.13;7.50;;;;;;;;;;753981;183;1003639;-67
2022/04/24 10:06:15;;;;;;;11.83;5.63;;;;;;;;;;761060;184;941764;-66
2022/04/24 10:08:40;;;;;;;8.10;5.60;;;;;;;;;;758168;183;919906;-67
2022/04/24 10:11:05;;;;;;;11.13;5.67;;;;;;;;;;760750;183;919912;-67
2022/04/24 10:13:32;;;;;;;9.40;5.57;;;;;;;;;;758319;184;920143;-68
2022/04/24 10:16:01;;;;;;;9.77;5.70;;;;;;;;;;747854;187;918324;-66
2022/04/24 10:18:31;;;;;;;9.73;5.70;;;;;;;;;;750860;183;919702;-68
2022/04/24 10:21:11;;;;;;;7.93;5.90;;;;;;;;;;754475;184;915401;-68
2022/04/24 10:23:37;;;;;;;9.20;5.47;;;;;;;;;;752333;183;918201;-68
2022/04/24 10:26:03;;;;;;;9.23;5.40;;;;;;;;;;733929;190;922584;-67
2022/04/24 10:28:29;;;;;;;7.53;4.80;;;;;;;;;;757273;183;918873;-67
2022/04/24 10:30:57;;;;;;;9.53;5.17;;;;;;;;;;752116;183;918203;-68
2022/04/24 10:33:23;;;;;;;10.67;4.80;;;;;;;;;;755570;184;930359;-68
2022/04/24 10:35:52;;;;;;;12.10;6.60;;;;;;;;;;763653;183;918968;-68
2022/04/24 10:38:18;;;;;;;13.67;7.17;;;;;;;;;;757466;184;919047;-67
2022/04/24 10:40:49;;;;;;;12.30;7.03;;;;;;;;;;754292;184;918763;-68
2022/04/24 10:43:16;;;;;;;9.83;5.80;;;;;;;;;;764459;183;918200;-69
2022/04/24 10:45:44;;;;;;;16.10;8.83;;;;;;;;;;758759;181;919663;-68
2022/04/24 10:48:10;;;;;;;12.20;6.97;;;;;;;;;;758019;183;918553;-68
2022/04/24 10:50:36;;;;;;;27.63;8.40;;;;;;;;;;753800;184;918053;-68
2022/04/24 10:53:02;;;;;;;11.23;6.20;;;;;;;;;;757699;184;919338;-67
2022/04/24 10:55:29;;;;;;;11.20;5.07;;;;;;;;;;754484;184;918742;-67
2022/04/24 10:57:54;;;;;;;9.23;5.03;;;;;;;;;;752704;184;919202;-67
2022/04/24 11:00:22;;;;;;;6.03;4.17;;;;;;;;;;760498;183;918816;-68
2022/04/24 11:02:45;;;;;;;9.73;5.03;;;;;;;;;;755462;183;917313;-68
2022/04/24 11:05:11;;;;;;;11.33;4.90;;;;;;;;;;755570;183;920117;-68
2022/04/24 11:07:36;;;;;;;10.10;3.90;;;;;;;;;;761663;183;918295;-70
2022/04/24 11:10:03;;;;;;;6.63;3.90;;;;;;;;;;756509;183;918921;-68
2022/04/24 11:12:31;;;;;;;12.47;4.63;;;;;;;;;;756714;183;919938;-67
2022/04/24 11:14:55;;;;;;;7.27;4.57;;;;;;;;;;755982;184;920018;-68
2022/04/24 11:17:21;;;;;;;10.10;4.97;;;;;;;;;;760716;184;918544;-68
2022/04/24 11:19:48;;;;;;;7.00;4.70;;;;;;;;;;761489;183;919540;-69
2022/04/24 11:22:13;;;;;;;6.83;4.70;;;;;;;;;;759418;183;625314;-67
2022/04/24 11:24:38;;;;;;;9.23;4.50;;;;;;;;;;759877;183;918331;-68
2022/04/24 11:27:04;;;;;;;7.00;3.90;;;;;;;;;;752933;184;918686;-69
2022/04/24 11:29:30;;;;;;;8.33;3.90;;;;;;;;;;754714;183;918501;-68
2022/04/24 11:31:56;;;;;;;8.47;3.93;;;;;;;;;;764429;183;918399;-69
2022/04/24 11:34:22;;;;;;;7.87;3.50;;;;;;;;;;761505;182;631444;-68
2022/04/24 11:36:48;;;;;;;10.83;4.43;;;;;;;;;;759524;182;919403;-68
2022/04/24 11:39:14;;;;;;;6.37;3.60;;;;;;;;;;755177;183;1020648;-68
2022/04/24 11:41:41;;;;;;;7.20;3.97;;;;;;;;;;759163;184;1189330;-71
2022/04/24 11:51:50;;;;;;;8.67;3.40;;;;;;;;;;753219;183;618266;-69
2022/04/24 11:54:16;;;;;;;8.87;3.60;;;;;;;;;;764810;183;918953;-69
2022/04/24 11:56:42;;;;;;;9.40;2.87;;;;;;;;;;756412;183;918814;-69
2022/04/24 11:59:15;;;;;;;7.60;3.07;;;;;;;;;;755113;184;919170;-70
2022/04/24 12:01:41;;;;;;;11.23;2.50;;;;;;;;;;763402;183;867718;-68
2022/04/24 12:04:07;;;;;;;6.93;2.83;;;;;;;;;;757499;183;916827;-69
2022/04/24 12:06:33;;;;;;;15.00;3.67;;;;;;;;;;755563;184;919718;-69
2022/04/24 12:08:59;;;;;;;6.90;3.33;;;;;;;;;;756025;184;916380;-68
2022/04/24 12:11:26;;;;;;;7.33;3.40;;;;;;;;;;757237;184;919484;-68
2022/04/24 12:13:58;;;;;;;8.47;2.50;;;;;;;;;;754766;184;919812;-68
2022/04/24 12:16:24;;;;;;;7.80;3.58;;;;;;;;;;749915;184;920576;-68
2022/04/24 12:18:53;;;;;;;6.68;2.80;;;;;;;;;;756116;184;918729;-68
2022/04/24 12:21:19;;;;;;;10.13;2.87;;;;;;;;;;760378;183;918923;-68
2022/04/24 12:23:48;;;;;;;7.93;3.10;;;;;;;;;;756943;184;919175;-69
2022/04/24 12:26:14;;;;;;;9.03;3.20;;;;;;;;;;752735;184;922071;-68
2022/04/24 12:28:40;;;;;;;5.00;2.43;;;;;;;;;;760449;183;919421;-68
2022/04/24 12:31:06;;;;;;;9.83;3.20;;;;;;;;;;759952;183;917449;-68
2022/04/24 12:33:31;;;;;;;9.13;2.67;;;;;;;;;;762216;183;919446;-70
2022/04/24 12:36:03;;;;;;;9.83;2.93;;;;;;;;;;758388;184;919425;-69
2022/04/24 12:38:29;;;;;;;10.10;3.10;;;;;;;;;;763676;183;918463;-68
2022/04/24 12:40:57;;;;;;;14.80;3.20;;;;;;;;;;757144;183;919218;-69
2022/04/24 12:43:24;;;;;;;10.23;3.57;;;;;;;;;;759821;183;919005;-68
2022/04/24 12:45:49;;;;;;;4.73;2.63;;;;;;;;;;764318;183;919747;-69
2022/04/24 12:48:15;;;;;;;9.43;2.90;;;;;;;;;;758863;183;919564;-69
2022/04/24 12:50:41;;;;;;;11.23;3.93;;;;;;;;;;757243;184;919650;-69
2022/04/24 12:53:08;;;;;;;8.53;3.70;;;;;;;;;;753385;183;1022248;-68
2022/04/24 12:55:33;;;;;;;7.80;4.07;;;;;;;;;;765158;183;918661;-69
2022/04/24 12:57:59;;;;;;;7.17;2.97;;;;;;;;;;757661;183;918743;-69
2022/04/24 13:00:24;;;;;;;7.60;3.57;;;;;;;;;;755731;184;919448;-68
2022/04/24 13:02:50;;;;;;;8.30;2.93;;;;;;;;;;760839;184;918865;-69
2022/04/24 13:05:16;;;;;;;6.33;2.40;;;;;;;;;;754664;184;1021408;-67
2022/04/24 13:07:43;;;;;;;6.47;2.80;;;;;;;;;;755857;184;1021095;-68
2022/04/24 13:10:08;;;;;;;10.77;2.93;;;;;;;;;;758966;180;918212;-66
2022/04/24 13:12:34;;;;;;;8.63;3.93;;;;;;;;;;752125;184;918578;-68
2022/04/24 13:15:00;;;;;;;8.93;3.43;;;;;;;;;;752696;183;918065;-67
2022/04/24 13:19:58;;;;;;;7.40;2.50;;;;;;;;;;763776;183;918712;-67
2022/04/24 13:22:24;;;;;;;5.00;2.30;;;;;;;;;;754685;184;917485;-67
2022/04/24 13:24:49;;;;;;;6.80;2.73;;;;;;;;;;753534;184;923515;-68
2022/04/24 13:27:15;;;;;;;6.32;3.65;;;;;;;;;;760414;184;920020;-68
2022/04/24 13:29:41;;;;;;;9.77;3.87;;;;;;;;;;758972;183;918376;-68
2022/04/24 13:32:07;;;;;;;6.75;3.05;;;;;;;;;;756821;183;1021361;-69
2022/04/24 13:34:34;;;;;;;7.17;3.80;;;;;;;;;;765777;183;917671;-68
2022/04/24 13:39:31;;;;;;;6.30;2.10;;;;;;;;;;752279;184;915425;-68
2022/04/24 13:41:57;;;;;;;5.20;2.20;;;;;;;;;;755291;184;1042872;-69
2022/04/24 13:44:23;;;;;;;37.87;20.47;;;;;;;;;;760894;184;918760;-68
2022/04/24 13:46:48;;;;;;;24.10;15.53;;;;;;;;;;753228;183;915324;-68
2022/04/24 13:49:14;;;;;;;11.73;7.70;;;;;;;;;;752253;183;918802;-68
2022/04/24 13:51:40;;;;;;;6.47;1.93;;;;;;;;;;758487;183;919441;-68
2022/04/24 13:54:08;;;;;;;6.30;3.63;;;;;;;;;;760772;182;919605;-69
2022/04/24 13:56:32;;;;;;;15.10;4.53;;;;;;;;;;761546;182;629403;-70
2022/04/24 13:58:57;;;;;;;6.93;3.50;;;;;;;;;;754810;184;917329;-68
2022/04/24 14:01:25;;;;;;;6.50;3.40;;;;;;;;;;761077;184;914056;-68
2022/04/24 14:03:49;;;;;;;6.47;3.60;;;;;;;;;;756650;184;914405;-67
2022/04/24 14:06:15;;;;;;;6.25;4.22;;;;;;;;;;755447;184;919577;-69
2022/04/24 14:08:41;;;;;;;4.33;2.03;;;;;;;;;;760690;184;915057;-68
2022/04/24 14:11:09;;;;;;;5.47;2.03;;;;;;;;;;753733;184;924164;-69
2022/04/24 14:13:33;;;;;;;7.17;4.97;;;;;;;;;;754821;184;1021058;-68